Port Sulphur, LA (70083)

1:10 PM CST on February 06, 2016 (GMT -0600)
Myrtle Grove | | Change Station
CLOSE
Current Station
Personal Weather Station
Location: Port Sulphur, LA
Elevation: 0 ft
Nearby Weather Stations

Elev 0 ft 29.64 °N, 89.95 °W | Updated 4 seconds ago

Partly Cloudy
Partly Cloudy
53.1 °F
Feels Like 53.1 °F
N
4.2
Wind Variable Wind from ENE
Gusts 4.9 mph

Today
High -- | Low -- °F
--% Chance of Precip.
Yesterday
High -- | Low -- °F
Precip. -- in
Pressure 30.34 in
Visibility 7.0 miles
Clouds Mostly Cloudy 2500 ft
Dew Point 15 °F
Humidity 22%
Rainfall 0.00 in
Snow Depth Not available.
6:45 AM 5:41 PM
Waning Crescent, 4% visible
SPECI KAXO 061715Z 08014KT 7SM BKN025 13/05 A3034
Pressure 30.34 in
Visibility 7.0 miles
Clouds Mostly Cloudy 2500 ft
Dew Point 15 °F
Humidity 22%
Rainfall 0.00 in
Snow Depth Not available.
6:45 AM 5:41 PM
Waning Crescent, 4% visible
SPECI KAXO 061715Z 08014KT 7SM BKN025 13/05 A3034

10-Day Weather Forecast

Almanac

Astronomy

Feb. 06, 2016 Rise Set
Actual Time
Civil Twilight
Nautical Twilight
Astronomical Twilight
Moon
Length of Visible Light
Length of Day
Tomorrow will be .
, % of the Moon is Illuminated

Today's Extremes

State Highs State Lows

Community

WunderPhotos

Upload Photos

1,891,033 photos uploaded!

WunderBlog® & News

Nearby

Air Quality

  Air Quality AQ Index Pollutant
Not available.

Snow Depth

Station Depth Elevation

Earthquake Activity

City Distance Mag. Time & Date
Minimum magnitude displayed is 2.5.

Coastal Water Temperatures

Place Temperature

Stations

Nearby Weather Stations

Station Location Temp. Windchill Dew Point Humidity Wind Precip. Elev Updated Type
                   

Watches & Warnings

There are currently no watches in effect.